Time;durP1;ratioP1;P1;durP2;ratioP2;P2;SDS_P1;SDS_P2;PMS_P1;PMS_P2;Temp;Humidity;BMP_temperature;BMP_pressure;BME280_temperature;BME280_humidity;BME280_pressure;Samples;Min_cycle;Max_cycle;Signal;HPM_P1;HPM_P2
2022/04/05 00:01:54;;;;;;;13.50;9.07;;;;;;;9.53;70.95;100498.03;5119386;28;20051;-60
2022/04/05 00:04:22;;;;;;;15.63;8.05;;;;;;;9.55;70.47;100489.75;5118739;28;20066;-61
2022/04/05 00:06:50;;;;;;;13.27;8.45;;;;;;;9.54;70.95;100493.47;5110572;28;20086;-62
2022/04/05 00:09:19;;;;;;;10.73;7.53;;;;;;;9.55;70.94;100490.56;5116622;28;20048;-60
2022/04/05 00:11:46;;;;;;;12.68;7.90;;;;;;;9.56;71.58;100496.75;5118762;28;20075;-60
2022/04/05 00:14:14;;;;;;;11.48;6.85;;;;;;;9.56;70.56;100491.38;5118999;28;20048;-60
2022/04/05 00:16:42;;;;;;;11.77;7.70;;;;;;;9.57;72.46;100498.41;5111128;28;20048;-61
2022/04/05 00:19:10;;;;;;;9.73;6.65;;;;;;;9.56;72.51;100502.94;5120147;28;20047;-60
2022/04/05 00:21:37;;;;;;;11.05;6.82;;;;;;;9.59;72.63;100490.94;5111914;28;20075;-61
2022/04/05 00:24:06;;;;;;;13.50;7.28;;;;;;;9.59;72.29;100501.66;5109033;28;20091;-61
2022/04/05 00:26:35;;;;;;;14.70;6.78;;;;;;;9.60;72.13;100500.63;5110009;28;20115;-60
2022/04/05 00:29:03;;;;;;;13.07;7.00;;;;;;;9.59;72.02;100505.19;5118320;28;20063;-61
2022/04/05 00:31:31;;;;;;;9.98;6.75;;;;;;;9.59;71.74;100499.81;5114619;28;20052;-60
2022/04/05 00:33:59;;;;;;;12.80;7.13;;;;;;;9.60;72.42;100495.25;5119523;28;20082;-61
2022/04/05 00:36:26;;;;;;;14.77;5.93;;;;;;;9.60;71.16;100495.25;5123627;28;20115;-61
2022/04/05 00:38:54;;;;;;;12.15;7.10;;;;;;;9.62;72.10;100495.84;5111105;28;20147;-61
2022/04/05 00:41:22;;;;;;;16.27;7.60;;;;;;;9.62;72.93;100491.31;5111976;28;20048;-60
2022/04/05 00:43:51;;;;;;;11.73;5.75;;;;;;;9.62;72.29;100502.03;5119306;28;20082;-61
2022/04/05 00:46:18;;;;;;;11.65;5.95;;;;;;;9.62;72.79;100495.84;5126394;27;20047;-60
2022/04/05 00:48:49;;;;;;;18.90;6.88;;;;;;;9.63;72.42;100500.19;5121710;28;20048;-60
2022/04/05 00:51:17;;;;;;;12.68;6.32;;;;;;;9.64;72.54;100493.78;5120679;28;20051;-60
2022/04/05 00:53:47;;;;;;;10.57;5.97;;;;;;;9.62;73.06;100499.38;5113701;27;20082;-60
2022/04/05 00:56:16;;;;;;;10.45;6.20;;;;;;;9.65;72.66;100496.22;5110998;28;20071;-60
2022/04/05 00:58:47;;;;;;;18.58;6.80;;;;;;;9.65;73.18;100498.91;5123404;27;20062;-60
2022/04/05 01:01:18;;;;;;;11.82;6.22;;;;;;;9.66;72.75;100505.09;5127526;28;20075;-60
2022/04/05 01:03:48;;;;;;;13.70;6.65;;;;;;;9.67;73.99;100502.19;5125436;27;20131;-60
2022/04/05 01:06:18;;;;;;;13.20;6.75;;;;;;;9.65;73.17;100504.28;5108742;28;20047;-61
2022/04/05 01:08:47;;;;;;;12.75;6.40;;;;;;;9.68;72.96;100501.16;5119457;28;20127;-60
2022/04/05 01:11:15;;;;;;;12.90;6.57;;;;;;;9.68;72.93;100505.69;5123874;28;20108;-60
2022/04/05 01:13:43;;;;;;;12.60;6.43;;;;;;;9.69;73.09;100507.34;5125231;28;20056;-60
2022/04/05 01:16:12;;;;;;;11.65;5.75;;;;;;;9.68;73.23;100501.16;5122935;27;20067;-60
2022/04/05 01:18:43;;;;;;;9.55;5.72;;;;;;;9.65;73.60;100493.56;5120482;27;20090;-60
2022/04/05 01:21:11;;;;;;;11.57;6.05;;;;;;;9.71;74.30;100502.56;5116332;28;20063;-60
2022/04/05 01:23:38;;;;;;;11.32;6.32;;;;;;;9.70;74.18;100507.13;5121531;28;20067;-60
2022/04/05 01:26:07;;;;;;;9.77;5.70;;;;;;;9.71;74.51;100508.75;5120319;28;20043;-60
2022/04/05 01:28:35;;;;;;;11.63;5.97;;;;;;;9.72;73.99;100506.88;5126019;27;20063;-60
2022/04/05 01:31:03;;;;;;;10.98;6.25;;;;;;;9.72;74.22;100512.25;5117288;28;20047;-60
2022/04/05 01:33:30;;;;;;;13.82;6.53;;;;;;;9.73;73.99;100513.91;5130724;27;20083;-60
2022/04/05 01:35:58;;;;;;;10.85;6.07;;;;;;;9.61;74.04;100495.03;5117439;27;20086;-60
2022/04/05 01:38:26;;;;;;;13.02;6.32;;;;;;;9.75;74.75;100518.00;5108853;28;20193;-60
2022/04/05 01:40:55;;;;;;;14.20;7.15;;;;;;;9.72;74.17;100521.13;5115966;28;20052;-60
2022/04/05 01:43:24;;;;;;;9.93;6.38;;;;;;;9.72;74.95;100514.94;5116656;28;20063;-60
2022/04/05 01:45:52;;;;;;;11.85;6.03;;;;;;;9.72;74.49;100507.72;5114838;28;20050;-59
2022/04/05 01:48:20;;;;;;;10.82;6.38;;;;;;;9.74;74.86;100510.97;5131609;27;20115;-60
2022/04/05 01:50:47;;;;;;;9.77;6.00;;;;;;;9.73;74.37;100514.72;5113429;28;20095;-60
2022/04/05 01:53:15;;;;;;;11.23;6.57;;;;;;;9.74;75.11;100507.47;5109807;28;20075;-60
2022/04/05 01:55:43;;;;;;;13.55;6.15;;;;;;;9.74;74.50;100510.97;5122589;28;20119;-60
2022/04/05 01:58:11;;;;;;;13.13;6.63;;;;;;;9.76;74.87;100516.13;5116037;27;20058;-61
2022/04/05 02:00:40;;;;;;;10.35;6.10;;;;;;;9.75;74.74;100515.31;5106652;28;20083;-61
2022/04/05 02:03:08;;;;;;;11.15;6.70;;;;;;;9.72;74.86;100510.41;5118752;28;20048;-61
2022/04/05 02:05:36;;;;;;;10.38;6.25;;;;;;;9.75;75.09;100511.81;5118848;28;20074;-60
2022/04/05 02:08:04;;;;;;;10.95;5.63;;;;;;;9.72;74.98;100506.88;5115790;28;20075;-59
2022/04/05 02:10:32;;;;;;;11.32;6.13;;;;;;;9.75;74.10;100506.44;5114252;28;20099;-60
2022/04/05 02:13:00;;;;;;;12.82;7.20;;;;;;;9.75;75.25;100498.38;5122531;28;20443;-61
2022/04/05 02:15:28;;;;;;;13.95;6.43;;;;;;;9.76;75.00;100508.91;5109887;28;20119;-60
2022/04/05 02:17:57;;;;;;;11.25;6.55;;;;;;;9.76;74.24;100516.94;5120795;28;20043;-60
2022/04/05 02:20:25;;;;;;;8.63;5.30;;;;;;;9.77;74.52;100523.13;5119485;28;20044;-60
2022/04/05 02:22:53;;;;;;;7.82;5.47;;;;;;;9.78;74.21;100503.31;5120493;28;20074;-61
2022/04/05 02:25:20;;;;;;;10.82;5.97;;;;;;;9.78;74.54;100516.72;5123128;28;20079;-60
2022/04/05 02:27:48;;;;;;;13.70;6.22;;;;;;;9.78;75.10;100517.53;5119448;28;20086;-60
2022/04/05 02:30:16;;;;;;;9.07;5.40;;;;;;;9.77;75.72;100518.59;5120436;28;20067;-60
2022/04/05 02:32:43;;;;;;;9.68;5.85;;;;;;;9.78;74.92;100514.84;5117898;28;20107;-60
2022/04/05 02:35:12;;;;;;;12.75;6.43;;;;;;;9.78;75.83;100520.22;5108115;28;20120;-60
2022/04/05 02:37:40;;;;;;;9.13;5.57;;;;;;;9.78;74.96;100514.84;5105784;28;20462;-60
2022/04/05 02:40:09;;;;;;;11.57;5.75;;;;;;;9.78;75.71;100519.41;5121360;28;20059;-60
2022/04/05 02:42:38;;;;;;;15.60;6.82;;;;;;;9.78;76.42;100522.09;5119948;27;20052;-60
2022/04/05 02:45:07;;;;;;;12.88;6.63;;;;;;;9.67;76.09;100498.69;5121468;28;20039;-60
2022/04/05 02:47:35;;;;;;;13.27;6.30;;;;;;;9.77;75.91;100521.28;5113569;28;20079;-59
2022/04/05 02:50:03;;;;;;;14.10;6.57;;;;;;;9.79;75.83;100515.69;5105899;28;20084;-59
2022/04/05 02:52:32;;;;;;;11.18;5.63;;;;;;;9.81;75.25;100520.81;5110636;28;20448;-59
2022/04/05 02:55:00;;;;;;;16.80;6.75;;;;;;;9.80;75.60;100520.00;5113813;27;20112;-60
2022/04/05 02:57:28;;;;;;;9.32;5.55;;;;;;;9.79;75.00;100508.44;5111404;28;20052;-60
2022/04/05 02:59:56;;;;;;;9.98;6.50;;;;;;;9.80;75.18;100509.28;5111140;28;20051;-60
2022/04/05 03:02:24;;;;;;;11.07;6.03;;;;;;;9.81;75.48;100510.09;5106062;28;20082;-60
2022/04/05 03:04:51;;;;;;;10.82;5.95;;;;;;;9.81;75.88;100504.72;5116680;28;20066;-61
2022/04/05 03:07:19;;;;;;;9.80;5.95;;;;;;;9.82;74.96;100511.72;5106629;28;20052;-60
2022/04/05 03:09:48;;;;;;;10.10;5.75;;;;;;;9.81;74.77;100508.22;5110243;28;20078;-60
2022/04/05 03:12:16;;;;;;;12.45;6.47;;;;;;;9.81;74.48;100510.91;5120222;28;20039;-60
2022/04/05 03:14:44;;;;;;;11.18;6.40;;;;;;;9.81;74.96;100502.84;5110771;28;20054;-60
2022/04/05 03:17:11;;;;;;;13.15;7.20;;;;;;;9.80;75.04;100514.63;5121155;28;20050;-60
2022/04/05 03:19:39;;;;;;;13.52;5.22;;;;;;;9.81;75.32;100516.28;5118919;28;20078;-59
2022/04/05 03:22:08;;;;;;;12.07;6.78;;;;;;;9.81;74.98;100513.59;5118271;28;20052;-59
2022/04/05 03:24:36;;;;;;;12.30;6.00;;;;;;;9.81;75.21;100510.91;5105063;28;20097;-60
2022/04/05 03:27:05;;;;;;;9.32;5.38;;;;;;;9.83;75.03;100508.81;5112787;28;20112;-61
2022/04/05 03:29:33;;;;;;;12.75;5.75;;;;;;;9.78;74.96;100498.75;5124080;28;20051;-61
2022/04/05 03:32:01;;;;;;;9.90;6.13;;;;;;;9.83;74.92;100503.44;5121256;28;20094;-61
2022/04/05 03:34:29;;;;;;;8.93;6.82;;;;;;;9.83;76.21;100514.19;5108699;28;20047;-61
2022/04/05 03:36:57;;;;;;;11.35;5.75;;;;;;;9.82;75.75;100509.03;5117618;28;20067;-60
2022/04/05 03:39:25;;;;;;;13.52;5.72;;;;;;;9.81;76.04;100510.91;5112641;28;20491;-60
2022/04/05 03:41:53;;;;;;;13.32;6.65;;;;;;;9.82;75.92;100507.19;5111948;28;20055;-60
2022/04/05 03:44:22;;;;;;;12.40;6.45;;;;;;;9.82;76.05;100504.50;5109646;28;20048;-61
2022/04/05 03:46:50;;;;;;;11.10;6.20;;;;;;;9.82;76.32;100509.88;5103839;28;20084;-60
2022/04/05 03:49:17;;;;;;;11.25;6.53;;;;;;;9.83;75.92;100516.06;5124131;28;20082;-60
2022/04/05 03:51:50;;;;;;;10.55;6.32;;;;;;;9.82;75.21;100509.03;5112336;28;20086;-60
2022/04/05 03:54:17;;;;;;;12.70;6.05;;;;;;;9.83;75.71;100516.06;5109620;28;20051;-61
2022/04/05 03:56:45;;;;;;;15.15;7.88;;;;;;;9.82;75.95;100511.72;5107747;28;20043;-60
2022/04/05 03:59:13;;;;;;;11.88;6.20;;;;;;;9.82;75.62;100509.88;5105607;28;20076;-60
2022/04/05 04:01:42;;;;;;;9.60;6.38;;;;;;;9.82;75.80;100519.78;5118530;28;20079;-60
2022/04/05 04:04:10;;;;;;;15.00;7.07;;;;;;;9.81;75.78;100508.22;5105878;28;20060;-61
2022/04/05 04:06:37;;;;;;;15.02;5.93;;;;;;;9.83;74.98;100514.19;5108190;28;20075;-60
2022/04/05 04:09:05;;;;;;;8.68;5.93;;;;;;;9.83;75.74;100511.50;5114534;28;20143;-60
2022/04/05 04:11:33;;;;;;;13.52;6.38;;;;;;;9.78;75.93;100506.81;5110514;28;20052;-59
2022/04/05 04:14:01;;;;;;;9.65;5.82;;;;;;;9.82;76.52;100515.22;5104607;28;20059;-60
2022/04/05 04:16:29;;;;;;;12.57;5.93;;;;;;;9.82;75.91;100503.69;5120301;28;20083;-60
2022/04/05 04:18:58;;;;;;;9.95;5.70;;;;;;;9.82;75.97;100504.50;5112856;28;20052;-60
2022/04/05 04:21:25;;;;;;;10.93;6.25;;;;;;;9.82;75.78;100499.13;5108569;28;20106;-60
2022/04/05 04:23:53;;;;;;;19.48;6.88;;;;;;;9.84;76.03;100506.94;5112619;28;20079;-60
2022/04/05 04:26:21;;;;;;;11.50;5.88;;;;;;;9.84;75.80;100504.28;5116657;28;20365;-61
2022/04/05 04:28:52;;;;;;;11.02;6.18;;;;;;;9.84;76.10;100510.47;5117360;28;20071;-59
2022/04/05 04:31:20;;;;;;;11.57;6.28;;;;;;;9.83;76.01;100505.31;5113150;28;20055;-59
2022/04/05 04:33:48;;;;;;;11.50;6.45;;;;;;;9.84;76.07;100509.63;5106143;28;20058;-59
2022/04/05 04:36:17;;;;;;;9.30;6.43;;;;;;;9.84;76.14;100507.78;5111639;28;20058;-60
2022/04/05 04:38:45;;;;;;;11.00;5.68;;;;;;;9.85;76.26;100511.28;5110303;28;20082;-59
2022/04/05 04:41:13;;;;;;;11.90;6.13;;;;;;;9.86;75.57;100518.28;5115774;28;20052;-59
2022/04/05 04:43:41;;;;;;;11.23;5.50;;;;;;;9.87;76.18;100509.19;5108349;28;20078;-59
2022/04/05 04:46:08;;;;;;;16.17;6.78;;;;;;;9.86;76.18;100507.56;5119700;28;20058;-59
2022/04/05 04:48:36;;;;;;;10.18;5.82;;;;;;;9.85;75.22;100508.59;5105677;28;20044;-59
2022/04/05 04:51:04;;;;;;;14.15;5.93;;;;;;;9.85;76.02;100517.47;5114272;28;20465;-60
2022/04/05 04:53:33;;;;;;;11.05;6.07;;;;;;;9.87;75.70;100512.69;5122557;28;20048;-60
2022/04/05 04:56:01;;;;;;;12.07;6.53;;;;;;;9.87;76.24;100519.94;5109648;28;20519;-60
2022/04/05 04:58:36;;;;;;;10.50;6.25;;;;;;;9.86;76.50;100510.22;5110122;28;20061;-60
2022/04/05 05:01:04;;;;;;;9.50;5.35;;;;;;;9.86;75.76;100516.41;5118569;28;20071;-59
2022/04/05 05:03:32;;;;;;;11.93;6.15;;;;;;;9.85;75.94;100514.78;5116626;28;20081;-60
2022/04/05 05:06:00;;;;;;;10.13;6.78;;;;;;;9.86;75.70;100520.97;5107139;28;20056;-60
2022/04/05 05:08:28;;;;;;;11.68;7.10;;;;;;;9.85;76.39;100522.84;5113161;28;20161;-60
2022/04/05 05:10:58;;;;;;;10.20;5.70;;;;;;;9.88;76.06;100524.25;5118120;28;20422;-60
2022/04/05 05:13:25;;;;;;;10.18;5.55;;;;;;;9.87;75.42;100518.06;5119008;28;20051;-64
2022/04/05 05:15:53;;;;;;;9.45;5.35;;;;;;;9.88;76.36;100521.56;5115455;28;20056;-59
2022/04/05 05:18:21;;;;;;;10.20;5.50;;;;;;;9.87;76.56;100522.59;5126128;28;20074;-61
2022/04/05 05:20:49;;;;;;;10.25;5.85;;;;;;;9.86;76.12;100521.78;5114510;28;20083;-61
2022/04/05 05:23:17;;;;;;;11.85;6.60;;;;;;;9.87;76.69;100525.28;5118474;28;20067;-60
2022/04/05 05:25:46;;;;;;;8.02;5.38;;;;;;;9.87;76.69;100530.66;5119448;28;20049;-62
2022/04/05 05:28:15;;;;;;;10.00;5.90;;;;;;;9.87;76.01;100536.03;5122462;28;20054;-62
2022/04/05 05:30:43;;;;;;;8.82;5.80;;;;;;;9.86;76.33;100524.47;5122245;28;20067;-61
2022/04/05 05:33:11;;;;;;;10.23;5.47;;;;;;;9.90;75.71;100528.34;5120971;28;20141;-62
2022/04/05 05:35:39;;;;;;;9.05;5.55;;;;;;;9.88;76.45;100535.81;4393308;28;10001341;-61
2022/04/05 05:38:06;;;;;;;8.25;5.28;;;;;;;9.88;76.63;100534.97;5090581;28;20441;-61
2022/04/05 05:40:34;;;;;;;8.85;5.53;;;;;;;9.89;75.90;100529.41;5094275;28;20067;-61
2022/04/05 05:43:04;;;;;;;8.25;5.70;;;;;;;9.87;76.58;100530.66;5096964;28;20102;-61
2022/04/05 05:45:35;;;;;;;10.70;6.10;;;;;;;9.87;75.91;100544.09;5089297;28;20052;-62
2022/04/05 05:48:04;;;;;;;8.93;5.80;;;;;;;9.87;76.14;100536.03;5096609;28;20113;-62
2022/04/05 05:50:32;;;;;;;10.77;6.35;;;;;;;9.81;77.16;100526.19;5086219;28;20075;-59
2022/04/05 05:53:01;;;;;;;11.73;6.18;;;;;;;9.87;76.42;100544.91;5094721;28;20048;-61
2022/04/05 05:55:28;;;;;;;9.00;6.63;;;;;;;9.88;76.59;100553.78;5093100;28;20513;-61
2022/04/05 05:57:56;;;;;;;9.98;6.35;;;;;;;9.89;76.59;100548.19;5095916;28;20075;-60
2022/04/05 06:00:24;;;;;;;9.02;6.38;;;;;;;9.89;77.17;100542.00;5093695;28;20090;-60
2022/04/05 06:02:56;;;;;;;8.80;6.03;;;;;;;9.88;76.64;100554.59;5103937;28;20075;-61
2022/04/05 06:05:25;;;;;;;11.45;6.70;;;;;;;9.88;76.44;100549.22;5091323;28;20132;-61
2022/04/05 06:07:53;;;;;;;9.63;6.32;;;;;;;9.89;76.50;100555.41;5082713;28;20131;-61
2022/04/05 06:10:21;;;;;;;12.48;7.22;;;;;;;9.75;77.01;100530.59;5091743;28;20270;-60
2022/04/05 06:12:50;;;;;;;11.15;6.88;;;;;;;9.89;76.46;100555.41;5097970;28;20090;-61
2022/04/05 06:15:20;;;;;;;11.65;6.88;;;;;;;9.89;76.58;100550.88;5109388;28;20428;-62
2022/04/05 06:17:49;;;;;;;12.25;6.38;;;;;;;9.88;76.02;100551.09;5121796;28;20044;-61
2022/04/05 06:20:19;;;;;;;12.02;6.95;;;;;;;9.90;75.85;100562.44;5124837;28;20040;-61
2022/04/05 06:22:49;;;;;;;14.50;6.88;;;;;;;9.91;76.35;100561.38;5124359;27;20048;-61
2022/04/05 06:25:18;;;;;;;11.52;6.80;;;;;;;9.91;76.36;100562.19;5110943;27;20043;-61
2022/04/05 06:27:47;;;;;;;11.00;6.63;;;;;;;9.85;76.47;100560.41;5105228;28;20080;-61
2022/04/05 06:30:16;;;;;;;13.90;7.05;;;;;;;9.92;76.41;100565.69;5119855;28;20047;-61
2022/04/05 06:32:45;;;;;;;10.20;5.95;;;;;;;9.93;75.82;100564.66;5116722;28;20047;-61
2022/04/05 06:35:14;;;;;;;11.63;7.13;;;;;;;9.92;76.52;100565.69;5117758;27;20059;-61
2022/04/05 06:37:44;;;;;;;9.45;6.18;;;;;;;9.92;75.83;100579.13;5118978;28;20059;-60
2022/04/05 06:40:14;;;;;;;11.77;6.97;;;;;;;9.90;76.13;100573.97;5127446;27;20123;-60
2022/04/05 06:42:43;;;;;;;10.00;6.57;;;;;;;9.90;76.63;100576.66;5104825;27;20555;-60
2022/04/05 06:45:13;;;;;;;9.73;6.25;;;;;;;9.92;76.01;100579.13;5119232;28;20051;-60
2022/04/05 06:47:41;;;;;;;11.48;6.07;;;;;;;9.98;75.08;100579.06;5123868;28;20058;-60
2022/04/05 06:50:10;;;;;;;13.90;6.75;;;;;;;9.94;75.13;100580.53;5125028;28;20446;-59
2022/04/05 06:52:40;;;;;;;12.80;6.32;;;;;;;9.93;76.46;100575.41;5119203;28;20058;-60
2022/04/05 06:55:11;;;;;;;13.98;6.65;;;;;;;9.94;75.88;100582.41;5124695;28;20054;-60
2022/04/05 06:57:39;;;;;;;11.82;5.93;;;;;;;9.88;74.84;100577.94;5124057;28;20519;-60
2022/04/05 07:00:09;;;;;;;13.40;5.95;;;;;;;9.98;75.77;100587.09;5115470;28;20078;-60
2022/04/05 07:02:37;;;;;;;11.30;6.25;;;;;;;9.96;75.73;100583.81;5123050;28;20048;-61
2022/04/05 07:05:07;;;;;;;8.98;5.53;;;;;;;9.96;75.45;100580.31;5124397;28;20063;-61
2022/04/05 07:07:34;;;;;;;9.68;5.95;;;;;;;9.95;75.84;100595.59;5120729;28;20051;-61
2022/04/05 07:10:02;;;;;;;11.93;5.65;;;;;;;9.96;76.11;100588.38;5121998;28;20086;-60
2022/04/05 07:12:31;;;;;;;9.63;5.53;;;;;;;9.93;75.61;100596.88;5124768;28;20043;-60
2022/04/05 07:14:59;;;;;;;10.48;5.70;;;;;;;9.97;75.70;100596.19;5125304;28;20067;-61
2022/04/05 07:17:27;;;;;;;10.98;5.63;;;;;;;9.98;75.61;100594.34;5110649;28;20082;-60
2022/04/05 07:20:14;;;;;;;11.18;5.45;;;;;;;9.98;75.92;100594.34;5123331;28;20062;-61
2022/04/05 07:22:47;;;;;;;10.20;5.28;;;;;;;9.98;74.82;100597.84;5120272;28;20059;-62
2022/04/05 07:25:15;;;;;;;9.35;5.40;;;;;;;9.99;75.92;100593.28;5124007;28;20093;-62
2022/04/05 07:27:45;;;;;;;9.75;5.22;;;;;;;9.99;76.01;100596.78;5124468;28;20069;-62
2022/04/05 07:30:13;;;;;;;10.30;5.82;;;;;;;9.97;76.03;100590.84;5114636;28;20097;-61
2022/04/05 07:32:43;;;;;;;9.77;4.90;;;;;;;9.99;76.24;100595.97;5124968;28;20077;-61
2022/04/05 07:35:11;;;;;;;7.15;4.20;;;;;;;9.98;76.00;100587.09;5124086;28;20065;-61
2022/04/05 07:37:38;;;;;;;8.13;4.38;;;;;;;10.00;75.99;100585.00;5113039;28;20059;-60
2022/04/05 07:40:10;;;;;;;11.05;4.63;;;;;;;9.99;76.06;100585.25;5106110;28;20116;-60
2022/04/05 07:42:39;;;;;;;7.60;4.47;;;;;;;10.02;76.47;100588.28;5114914;28;20161;-60
2022/04/05 07:45:10;;;;;;;9.88;4.68;;;;;;;9.99;76.26;100580.69;5125305;27;20048;-60
2022/04/05 07:47:39;;;;;;;11.45;4.43;;;;;;;10.01;76.13;100581.28;5118304;27;20043;-60
2022/04/05 07:50:08;;;;;;;8.70;4.40;;;;;;;10.13;75.85;100586.72;5122643;28;20097;-61
2022/04/05 07:52:36;;;;;;;8.65;4.63;;;;;;;10.21;75.54;100581.06;5123790;28;20079;-60
2022/04/05 07:55:05;;;;;;;8.10;4.75;;;;;;;10.41;74.93;100581.59;5115217;28;20071;-61
2022/04/05 07:57:34;;;;;;;10.25;4.63;;;;;;;10.58;74.41;100586.34;5123886;28;20075;-61
2022/04/05 08:00:02;;;;;;;8.90;4.20;;;;;;;10.73;73.35;100598.31;5124640;28;20112;-61
2022/04/05 08:02:31;;;;;;;7.07;4.15;;;;;;;10.89;72.40;100591.47;5112347;28;20040;-61
2022/04/05 08:05:10;;;;;;;6.75;3.88;;;;;;;11.05;71.84;100589.97;5121413;28;20059;-61
2022/04/05 08:07:38;;;;;;;7.13;3.58;;;;;;;11.18;71.56;100581.69;5117603;28;20146;-61
2022/04/05 08:10:07;;;;;;;11.23;3.50;;;;;;;11.32;70.77;100591.19;5121858;28;20086;-61
2022/04/05 08:12:39;;;;;;;8.75;3.78;;;;;;;11.43;70.35;100588.75;5123168;28;20054;-61
2022/04/05 08:15:08;;;;;;;10.00;3.95;;;;;;;11.52;70.78;100588.16;5105249;28;20055;-62
2022/04/05 08:17:37;;;;;;;8.68;4.45;;;;;;;11.62;70.08;100582.19;5112772;27;20047;-61
2022/04/05 08:20:06;;;;;;;7.38;3.58;;;;;;;11.69;69.99;100581.00;5123507;28;20048;-60
2022/04/05 08:22:34;;;;;;;6.82;3.13;;;;;;;11.73;70.06;100586.75;5121610;28;20059;-60
2022/04/05 08:25:02;;;;;;;10.13;4.07;;;;;;;11.74;69.74;100581.13;5120980;28;20160;-61
2022/04/05 08:27:30;;;;;;;6.90;4.45;;;;;;;11.79;69.71;100588.53;5120284;28;20048;-60
2022/04/05 08:29:57;;;;;;;10.57;3.60;;;;;;;11.79;69.16;100593.91;5123700;28;20082;-61
2022/04/05 08:32:25;;;;;;;12.90;4.05;;;;;;;11.81;69.74;100590.97;5117188;28;20044;-61
2022/04/05 08:34:54;;;;;;;7.80;4.65;;;;;;;11.85;69.46;100597.53;5123477;28;20051;-61
2022/04/05 08:37:23;;;;;;;6.43;3.35;;;;;;;11.87;69.12;100592.72;5119287;27;20079;-61
2022/04/05 08:39:50;;;;;;;5.60;3.28;;;;;;;11.87;68.76;100593.53;5120824;28;20044;-60
2022/04/05 08:42:18;;;;;;;7.82;3.92;;;;;;;11.90;69.24;100600.34;5123449;28;20079;-61
2022/04/05 08:44:49;;;;;;;8.63;3.65;;;;;;;11.93;68.37;100599.84;5115245;28;20127;-61
2022/04/05 08:47:21;;;;;;;10.50;4.28;;;;;;;11.97;69.33;100601.03;5113583;28;20077;-60
2022/04/05 08:49:49;;;;;;;7.75;4.00;;;;;;;11.99;69.03;100607.81;5113785;28;20052;-60
2022/04/05 08:52:19;;;;;;;5.85;3.67;;;;;;;12.02;69.06;100609.22;5103154;28;20048;-60
2022/04/05 08:54:46;;;;;;;6.70;3.38;;;;;;;12.01;69.03;100607.56;5111616;28;20080;-63
2022/04/05 08:57:14;;;;;;;5.53;3.15;;;;;;;12.02;69.12;100606.53;5121971;28;20087;-61
2022/04/05 08:59:42;;;;;;;6.15;3.75;;;;;;;12.08;69.02;100605.56;5117793;28;20098;-60
2022/04/05 09:02:09;;;;;;;8.57;3.78;;;;;;;12.12;68.94;100614.00;5123511;28;20043;-61
2022/04/05 09:04:38;;;;;;;9.05;3.90;;;;;;;12.11;69.03;100607.78;5123311;28;20081;-61
2022/04/05 09:07:23;;;;;;;7.75;4.30;;;;;;;12.14;69.04;100596.50;5114339;28;20091;-60
2022/04/05 09:10:09;;;;;;;7.53;4.30;;;;;;;12.20;68.75;100610.91;5125156;28;20071;-60
2022/04/05 09:12:44;;;;;;;7.18;3.83;;;;;;;12.20;69.20;100614.41;5127205;28;20075;-60
2022/04/05 09:15:24;;;;;;;8.95;4.68;;;;;;;12.19;69.62;100614.66;5120939;28;20109;-60
2022/04/05 09:17:53;;;;;;;7.53;4.45;;;;;;;12.24;69.13;100617.44;5126507;28;20139;-60
2022/04/05 09:20:24;;;;;;;7.18;4.35;;;;;;;12.21;69.10;100607.16;5126237;28;20051;-60
2022/04/05 09:22:54;;;;;;;6.32;4.53;;;;;;;12.18;69.40;100616.53;5125197;28;20077;-60
2022/04/05 09:25:23;;;;;;;8.40;4.43;;;;;;;12.03;69.96;100617.06;5126868;28;20058;-60
2022/04/05 09:27:52;;;;;;;9.10;4.47;;;;;;;11.89;70.84;100621.06;5118264;28;20039;-60
2022/04/05 09:30:23;;;;;;;6.22;4.70;;;;;;;11.73;71.40;100627.94;5125748;28;20526;-60
2022/04/05 09:32:52;;;;;;;10.15;5.38;;;;;;;11.59;71.73;100626.53;5127440;28;20069;-60
2022/04/05 09:35:22;;;;;;;8.73;4.68;;;;;;;11.49;72.33;100630.88;5110933;27;20052;-60
2022/04/05 09:37:51;;;;;;;8.30;5.05;;;;;;;11.47;72.71;100625.72;5126441;28;20072;-60
2022/04/05 09:40:23;;;;;;;8.93;4.82;;;;;;;11.58;72.30;100638.34;5109527;28;20097;-60
2022/04/05 09:43:04;;;;;;;8.23;5.00;;;;;;;11.59;71.83;100623.03;5118565;28;20051;-60
2022/04/05 09:45:47;;;;;;;11.10;5.32;;;;;;;11.53;72.43;100632.03;5115856;28;20075;-61
2022/04/05 09:48:16;;;;;;;10.23;5.38;;;;;;;11.45;72.79;100629.69;5106377;28;20052;-60
2022/04/05 09:51:03;;;;;;;7.75;5.28;;;;;;;11.37;72.83;100628.97;5114678;28;20063;-60
2022/04/05 09:53:47;;;;;;;11.82;5.95;;;;;;;11.28;73.21;100637.63;5126431;28;20082;-60
2022/04/05 09:56:19;;;;;;;8.95;5.90;;;;;;;11.22;73.78;100633.16;5115749;27;20058;-61
2022/04/05 09:58:49;;;;;;;8.13;5.60;;;;;;;11.17;73.75;100631.16;5127083;28;20144;-59
2022/04/05 10:01:18;;;;;;;9.55;6.32;;;;;;;11.12;74.37;100635.59;5121241;28;20267;-60
2022/04/05 10:03:58;;;;;;;10.30;6.28;;;;;;;11.09;73.90;100629.63;5118567;28;20105;-60
2022/04/05 10:06:28;;;;;;;11.38;6.50;;;;;;;11.03;74.22;100624.34;5125064;28;20083;-60
2022/04/05 10:08:57;;;;;;;7.43;5.10;;;;;;;11.06;74.77;100632.78;5120891;28;20118;-61
2022/04/05 10:11:27;;;;;;;8.45;5.47;;;;;;;11.03;74.44;100632.41;5104704;28;20048;-59
2022/04/05 10:13:56;;;;;;;6.63;5.20;;;;;;;11.03;73.99;100635.94;5121212;28;20455;-60
2022/04/05 10:16:25;;;;;;;7.03;4.90;;;;;;;11.01;74.87;100639.91;5130971;27;20046;-60
2022/04/05 10:19:08;;;;;;;7.35;5.60;;;;;;;10.98;74.83;100641.19;5129304;27;20062;-60
2022/04/05 10:21:37;;;;;;;8.10;4.90;;;;;;;10.96;74.70;100642.47;5117522;28;20059;-60
2022/04/05 10:24:06;;;;;;;6.78;5.10;;;;;;;10.96;75.10;100637.91;5125693;28;20079;-60
2022/04/05 10:26:38;;;;;;;8.00;4.30;;;;;;;10.95;75.12;100643.50;5125476;27;20047;-60
2022/04/05 10:29:08;;;;;;;6.70;4.50;;;;;;;10.94;75.02;100640.00;5111276;27;20043;-61
2022/04/05 10:31:45;;;;;;;7.07;4.50;;;;;;;10.93;75.51;100649.13;5115362;27;20070;-60
2022/04/05 10:34:21;;;;;;;9.93;5.32;;;;;;;10.92;75.11;100639.41;5115630;27;20040;-61
2022/04/05 10:37:16;;;;;;;11.05;4.43;;;;;;;10.90;75.61;100638.81;5121798;28;20181;-61
2022/04/05 10:39:44;;;;;;;8.07;4.50;;;;;;;10.92;75.29;100641.28;5111080;28;20386;-60
2022/04/05 10:42:22;;;;;;;6.38;4.00;;;;;;;10.85;75.47;100633.31;5104987;28;20477;-60
2022/04/05 10:44:52;;;;;;;6.20;4.50;;;;;;;10.89;75.57;100634.50;5115158;28;20052;-60
2022/04/05 10:47:21;;;;;;;6.82;3.65;;;;;;;10.86;75.79;100621.50;5125745;28;20047;-60
2022/04/05 10:50:17;;;;;;;10.98;4.40;;;;;;;10.91;75.60;100632.38;5123917;28;20043;-60
2022/04/05 10:52:47;;;;;;;7.18;4.38;;;;;;;10.90;75.48;100625.38;5125459;28;20055;-60
2022/04/05 10:55:18;;;;;;;7.13;3.83;;;;;;;10.92;75.76;100639.41;5116203;27;20044;-59
2022/04/05 10:57:47;;;;;;;11.70;4.07;;;;;;;10.92;75.88;100635.91;5104387;28;20086;-61
2022/04/05 11:00:23;;;;;;;6.75;4.18;;;;;;;10.93;75.92;100630.28;5105372;28;20052;-61
2022/04/05 11:03:04;;;;;;;8.70;3.92;;;;;;;10.92;75.85;100636.72;5105044;28;20055;-62
2022/04/05 11:05:39;;;;;;;7.38;3.53;;;;;;;10.93;76.38;100638.34;5117285;28;20056;-61
2022/04/05 11:08:15;;;;;;;6.70;3.90;;;;;;;10.88;76.16;100630.16;5119902;28;20040;-61
2022/04/05 11:10:53;;;;;;;;;;;;;;;10.94;76.21;100634.63;5121034;28;20097;-61
2022/04/05 11:13:30;;;;;;;;;;;;;;;10.95;75.91;100630.06;5125372;28;19923;-61
2022/04/05 11:15:59;;;;;;;6.53;3.47;;;;;;;10.96;76.04;100621.75;5117534;28;19920;-61
2022/04/05 11:18:29;;;;;;;5.07;3.42;;;;;;;10.94;75.98;100629.25;5104939;28;20044;-61
2022/04/05 11:20:58;;;;;;;5.95;3.28;;;;;;;10.97;75.95;100628.78;5111614;28;20047;-60
2022/04/05 11:23:46;;;;;;;7.55;4.40;;;;;;;10.97;76.22;100636.84;5124942;28;20071;-61
2022/04/05 11:26:35;;;;;;;6.00;4.10;;;;;;;10.94;76.47;100631.13;5123311;28;20131;-61
2022/04/05 11:29:20;;;;;;;6.25;3.83;;;;;;;10.98;76.31;100629.59;5110966;28;20067;-61
2022/04/05 11:31:49;;;;;;;5.60;3.83;;;;;;;11.00;76.42;100632.88;5125056;28;20047;-60
2022/04/05 11:34:37;;;;;;;6.13;3.92;;;;;;;10.96;76.29;100620.94;5124883;28;20055;-61
2022/04/05 11:37:08;;;;;;;5.88;4.05;;;;;;;10.99;76.21;100624.00;5117347;28;20044;-60
2022/04/05 11:39:37;;;;;;;6.97;3.85;;;;;;;10.98;76.66;100610.78;5106584;28;20048;-60